Airfield :
LOGIN :

Register | Disclaimer

   EN    FR    IT 

 










Legend :    VFR   Marginal VFR   IFR   Intensive IFR   Very Intensive IFR
Visi :
Ceiling :
>= 8 km
>= 3000ft
5 to 8 km
1000 to 3000 ft
1500m to 5 km
500 to 1000 ft
800 to 1500m
200 to 500 ft
< 800m
< 200 ft
Symbols :   Thunderstorms  Fog  Heavy snow  Heavy precipitations  Wind > 20 kt
SIGMETs :     Misc.  Thunderstorms  Icing  Turbulence  Mountain Waves  Volcanic Ashes






- Airport Elevation : 3368 ft


LSGC - Les Eplatures

CURRENT METAR :
  • 252220Z AUTO 29005KT 220V340 9999 -SN BKN008 M04/M06 Q1012

EXPIRED METARs :
  • 252150Z AUTO VRB03KT 9999 FEW010 OVC038 M04/M06 Q1012 RESN
  • 252120Z AUTO VRB03KT 9999 -SN BKN008 M04/M06 Q1011
  • 252050Z AUTO 28005KT 220V330 9999 -SN BKN006 BKN008 M04/M05 Q1011
  • 252020Z AUTO 27004KT 210V320 1500 -SN BR BKN009 BKN011 M04/M05 Q1010 REFZDZ
  • 251950Z AUTO 27004KT 210V300 0750 FZFG SCT006 BKN008 BKN011 M04/M05 Q1010

TAF TAF LSGC
Valid from the 25 at 15:00 until the 26 at 00:00 UTC


251425Z 2515/2524 25007KT 9999 -SHSN BKN010
TEMPO 2515/2521 0500 SN VV002



MET'MAP, your aeronautical weather chart ! - Copyright ORBIFLY December 2007 - Disclaimer

ORBIFLY MET'MAP TEAM :

Programming & Development : Alexandra Zaïnal
Concept & original design : Baudouin d'Aumeries
Assistance for programming : Marc-Olivier Méhu
Technical & hardware support : Manuel Goepfert

Contact : metmap@orbifly.com




SOURCES & CREDITS :

   NOAA